Aérodrome :







RETROUVEZ-NOUS SUR...

 
LOGIN :

S'inscrire | Disclaimer

   EN    FR    IT 

 









Légende :    VFR   VFR Marginal   IFR   IFR Intensif   IFR Très Intensif
Visi : 
Plafond : 
>= 8 km
>= 3000ft
5 à 8 km
1000 à 3000 ft
1500m à 5 km
500 à 1000 ft
800 à 1500m
200 à 500 ft
< 800m
< 200 ft
Symboles :   Orages  Brouillard  Fortes neiges  Fortes précipitations  Vent > 20 kt







- Altitude de l'aérodrome : 333 ft


KWVL - Waterville Robert Lafleur

DERNIER METAR :
  • 230456Z AUTO 02014KT 5SM -RA BR OVC006 09/09 A3002 RMK AO2 CIG 004V009 SLP193 P0004 T00940089 401720094

METARs EXPIRÉS :
  • 230426Z AUTO 02014KT 8SM -RA BKN008 OVC024 09/09 A3004 RMK AO2 CIG 006V011 P0002
  • 230414Z AUTO 02013KT 6SM -RA BR FEW008 OVC022 09/09 A3004 RMK AO2 P0002
  • 230356Z AUTO 02015KT 6SM -RA BR OVC022 09/09 A3004 RMK AO2 RAB07 SLP201 P0007 T00940089
  • 230256Z AUTO 02013G18KT 10SM OVC024 11/08 A3006 RMK AO2 RAE53 SLP205 P0001 60001 T01060083 58006

TAF N/A
FIR KZBW / Amérique du Nord



MET'MAP, la Météo Aéronautique d'un coup d'oeil ! - Copyright ORBIFLY Décembre 2007 - Disclaimer

ORBIFLY MET'MAP TEAM :

Programmation & Développement : Alexandra Zaïnal
Conception & Développement : Baudouin d'Aumeries
Co-Programmation & Développement : Marc-Olivier Méhu
Soutien technique & logistique : Manuel Goepfert

Contact : metmap@orbifly.com




SOURCES & CREDITS :

   NOAA